Time;durP1;ratioP1;P1;durP2;ratioP2;P2;SDS_P1;SDS_P2;PMS_P1;PMS_P2;Temp;Humidity;BMP_temperature;BMP_pressure;BME280_temperature;BME280_humidity;BME280_pressure;Samples;Min_cycle;Max_cycle;Signal;HPM_P1;HPM_P2
2024/04/15 00:00:37;;;;;;;3.00;1.90;;;;;;;10.22;66.67;100155.05;134977;1252;127793;-66
2024/04/15 00:04:07;;;;;;;4.00;1.70;;;;;;;10.27;66.58;100149.27;134963;1253;112590;-66
2024/04/15 00:07:33;;;;;;;4.60;1.70;;;;;;;10.30;66.65;100139.64;134887;1253;112472;-67
2024/04/15 00:10:42;;;;;;;3.40;1.70;;;;;;;10.34;66.57;100134.78;134980;1253;112565;-66
2024/04/15 00:17:36;;;;;;;4.10;1.50;;;;;;;10.39;66.63;100127.77;134808;1252;128839;-66
2024/04/15 00:20:37;;;;;;;4.00;2.20;;;;;;;10.41;66.75;100122.86;134954;1253;112586;-66
2024/04/15 00:23:48;;;;;;;3.40;1.70;;;;;;;10.42;66.62;100115.16;134945;1253;112703;-66
2024/04/15 00:26:51;;;;;;;3.80;1.80;;;;;;;10.43;66.60;100113.83;134989;1253;112538;-66
2024/04/15 00:29:53;;;;;;;3.80;1.40;;;;;;;10.45;66.58;100107.30;134984;1253;112715;-66
2024/04/15 00:32:59;;;;;;;4.70;1.80;;;;;;;10.46;66.72;100095.45;134951;1253;112516;-64
2024/04/15 00:36:04;;;;;;;5.00;1.90;;;;;;;10.45;66.56;100075.13;134958;1253;112732;-66
2024/04/15 00:39:10;;;;;;;3.20;1.90;;;;;;;10.48;66.64;100072.86;134967;1253;112680;-67
2024/04/15 00:42:25;;;;;;;3.40;1.60;;;;;;;10.47;66.51;100065.93;135000;1252;112414;-64
2024/04/15 00:45:31;;;;;;;5.50;2.10;;;;;;;10.44;66.36;100060.02;134930;1253;112506;-67
2024/04/15 00:48:33;;;;;;;4.50;1.50;;;;;;;10.41;66.40;100056.11;134875;1253;128010;-65
2024/04/15 00:51:59;;;;;;;4.80;1.90;;;;;;;10.37;66.43;100053.23;134994;1253;112881;-67
2024/04/15 00:55:07;;;;;;;2.90;1.70;;;;;;;10.32;66.26;100047.40;135026;1253;112446;-67
2024/04/15 00:58:29;;;;;;;3.20;1.60;;;;;;;10.29;66.42;100041.51;134920;1253;112503;-67
2024/04/15 01:01:55;;;;;;;3.70;1.90;;;;;;;10.26;66.66;100025.47;134896;1253;112753;-66
2024/04/15 01:05:20;;;;;;;3.50;1.60;;;;;;;10.22;66.72;100016.02;134563;1253;128216;-66
2024/04/15 01:08:53;;;;;;;5.20;2.00;;;;;;;10.17;66.81;100006.95;134202;1257;112636;-65
2024/04/15 01:12:22;;;;;;;;;;;;;;;;;;;;;
2024/04/15 01:16:00;;;;;;;3.70;1.80;;;;;;;10.16;66.88;100004.70;133792;1264;112760;-64
2024/04/15 01:19:26;;;;;;;7.30;2.10;;;;;;;10.17;67.22;99998.02;133454;1264;112586;-67
2024/04/15 01:22:45;;;;;;;6.30;2.20;;;;;;;10.20;67.51;99996.83;133820;1264;127823;-64
2024/04/15 01:25:59;;;;;;;;;;;;;;;;;;;;;
2024/04/15 01:29:43;;;;;;;6.20;2.40;;;;;;;10.26;67.63;100000.08;133839;1264;112681;-65
2024/04/15 01:33:17;;;;;;;6.40;1.90;;;;;;;10.32;67.50;99990.68;133849;1264;112570;-64
2024/04/15 01:36:39;;;;;;;3.80;2.10;;;;;;;10.37;67.72;99984.50;133648;1264;113051;-64
2024/04/15 01:39:49;;;;;;;3.70;2.10;;;;;;;10.43;67.96;99986.02;133810;1264;128547;-64
2024/04/15 01:43:19;;;;;;;3.90;2.20;;;;;;;10.49;67.91;99981.41;133803;1264;112820;-64
2024/04/15 01:46:36;;;;;;;;;;;;;;;;;;;;;
2024/04/15 01:49:47;;;;;;;3.70;1.60;;;;;;;10.59;67.83;99995.84;134751;1253;112841;-64
2024/04/15 01:53:11;;;;;;;4.50;2.20;;;;;;;10.65;68.11;100008.24;134989;1253;112433;-64
2024/04/15 01:56:21;;;;;;;5.50;2.10;;;;;;;10.71;68.06;99992.33;134991;1253;127792;-64
2024/04/15 02:03:29;;;;;;;5.90;1.90;;;;;;;10.78;68.00;99981.95;134765;1252;112489;-64
2024/04/15 02:06:48;;;;;;;4.30;2.50;;;;;;;10.81;68.01;99980.01;134812;1253;112731;-66
2024/04/15 02:10:34;;;;;;;;;;;;;;;;;;;;;
2024/04/15 02:14:27;;;;;;;4.00;1.70;;;;;;;10.91;68.39;99966.95;134925;1253;129037;-64
2024/04/15 02:18:27;;;;;;;3.70;1.60;;;;;;;10.94;68.27;99973.01;134022;1262;112678;-65
2024/04/15 02:22:20;;;;;;;3.20;1.70;;;;;;;10.97;68.34;99973.92;133604;1267;113074;-65
2024/04/15 02:26:37;;;;;;;3.00;1.80;;;;;;;10.98;68.20;99968.88;132066;1280;112642;-64
2024/04/15 02:30:39;;;;;;;3.20;1.80;;;;;;;10.99;68.32;99949.91;130993;1290;112817;-65
2024/04/15 02:34:18;;;;;;;4.40;2.40;;;;;;;10.97;68.23;99934.63;130320;1295;129769;-64
2024/04/15 02:42:30;;;;;;;4.10;2.00;;;;;;;10.96;69.12;99917.88;126154;1298;638722;-63
2024/04/15 02:45:52;;;;;;;6.90;2.80;;;;;;;10.91;69.23;99913.51;129406;1288;129696;-65
2024/04/15 02:49:13;;;;;;;;;;;;;;;;;;;;;
2024/04/15 02:53:17;;;;;;;7.60;1.80;;;;;;;10.88;70.39;99895.47;129250;1269;114808;-64
2024/04/15 02:57:19;;;;;;;6.40;2.20;;;;;;;10.85;70.61;99879.05;123828;1287;5423051;-65
2024/04/15 03:01:21;;;;;;;3.90;1.80;;;;;;;10.77;70.49;99881.61;126118;1296;114964;-66
2024/04/15 03:05:11;;;;;;;3.00;1.70;;;;;;;10.74;70.99;99877.52;124893;1311;114804;-65
2024/04/15 03:09:12;;;;;;;;;;;;;;;;;;;;;
2024/04/15 03:12:58;;;;;;;;;;;;;;;;;;;;;
2024/04/15 03:17:20;;;;;;;6.20;2.10;;;;;;;10.61;71.54;99846.83;126340;1298;638767;-63
2024/04/15 03:21:22;;;;;;;5.40;2.60;;;;;;;10.53;71.64;99846.52;129108;1273;127427;-64
2024/04/15 03:25:30;;;;;;;5.00;2.40;;;;;;;10.51;71.96;99847.02;127621;1285;114929;-64
2024/04/15 03:29:29;;;;;;;;;;;;;;;;;;;;;
2024/04/15 03:38:05;;;;;;;6.50;2.60;;;;;;;10.49;71.89;99822.10;125625;1298;638716;-64
2024/04/15 03:41:58;;;;;;;;;;;;;;;;;;;;;
2024/04/15 03:45:55;;;;;;;6.30;2.80;;;;;;;10.49;72.54;99830.34;127494;1286;114837;-65
2024/04/15 03:49:50;;;;;;;4.60;2.60;;;;;;;10.49;72.81;99838.04;126352;1286;455822;-65
2024/04/15 03:53:51;;;;;;;;;;;;;;;;;;;;;
2024/04/15 03:57:53;;;;;;;5.60;3.20;;;;;;;10.47;73.20;99850.98;125228;1307;115077;-64
2024/04/15 04:01:44;;;;;;;6.50;2.30;;;;;;;10.46;73.63;99844.27;123740;1319;129768;-64
2024/04/15 04:05:51;;;;;;;5.50;2.80;;;;;;;10.47;73.70;99844.19;126412;1291;636027;-64
2024/04/15 04:09:38;;;;;;;5.70;3.00;;;;;;;10.43;73.65;99840.71;128950;1277;128710;-64
2024/04/15 04:13:40;;;;;;;8.20;3.20;;;;;;;10.40;73.74;99830.14;128248;1281;114843;-65
2024/04/15 04:17:35;;;;;;;;;;;;;;;;;;;;;
2024/04/15 04:21:29;;;;;;;5.30;3.10;;;;;;;10.34;73.91;99830.25;122361;1298;114922;-64
2024/04/15 04:25:22;;;;;;;;;;;;;;;;;;;;;
2024/04/15 04:29:07;;;;;;;5.00;3.10;;;;;;;10.35;74.48;99868.40;125125;1305;114914;-64
2024/04/15 04:32:42;;;;;;;;;;;;;;;;;;;;;
2024/04/15 04:36:36;;;;;;;;;;;;;;;;;;;;;
2024/04/15 04:41:02;;;;;;;5.70;3.40;;;;;;;10.39;74.78;99938.86;126164;1295;636561;-64
2024/04/15 04:45:05;;;;;;;6.60;3.80;;;;;;;10.38;74.65;99939.33;128134;1280;128884;-64
2024/04/15 04:48:58;;;;;;;;;;;;;;;;;;;;;
2024/04/15 04:52:59;;;;;;;;;;;;;;;;;;;;;
2024/04/15 04:56:47;;;;;;;;;;;;;;;;;;;;;
2024/04/15 05:00:20;;;;;;;;;;;;;;;;;;;;;
2024/04/15 05:03:58;;;;;;;;;;;;;;;;;;;;;
2024/04/15 05:07:50;;;;;;;;;;;;;;;;;;;;;
2024/04/15 05:11:44;;;;;;;;;;;;;;;;;;;;;
2024/04/15 05:19:46;;;;;;;7.00;2.70;;;;;;;10.26;74.38;99962.09;126170;1291;636058;-64
2024/04/15 05:23:47;;;;;;;;;;;;;;;;;;;;;
2024/04/15 05:27:53;;;;;;;6.00;2.10;;;;;;;10.23;74.16;99956.55;128203;1292;114840;-65
2024/04/15 05:32:07;;;;;;;5.60;2.50;;;;;;;10.22;74.06;99941.06;127507;1283;7718584;-67
2024/04/15 05:36:20;;;;;;;7.10;2.30;;;;;;;10.21;73.43;99920.77;126972;1290;114841;-64
2024/04/15 05:40:23;;;;;;;4.90;1.60;;;;;;;10.15;72.40;99920.38;126904;1286;129778;-65
2024/04/15 05:44:16;;;;;;;4.90;1.80;;;;;;;10.07;72.21;99924.16;127201;1303;114935;-64
2024/04/15 05:48:20;;;;;;;7.40;1.40;;;;;;;10.03;71.97;99913.99;126490;1296;114833;-65
2024/04/15 05:52:25;;;;;;;3.60;1.50;;;;;;;10.02;71.32;99905.72;125984;1308;114939;-62
2024/04/15 06:00:36;;;;;;;5.90;2.30;;;;;;;10.01;70.42;99915.06;126003;1293;635464;-64
2024/04/15 06:04:14;;;;;;;;;;;;;;;;;;;;;
2024/04/15 06:08:06;;;;;;;;;;;;;;;;;;;;;
2024/04/15 06:12:08;;;;;;;;;;;;;;;;;;;;;
2024/04/15 06:16:04;;;;;;;5.60;1.90;;;;;;;9.94;70.02;99904.32;122470;1315;114773;-62
2024/04/15 06:19:48;;;;;;;3.80;1.60;;;;;;;9.93;69.96;99889.10;125339;1315;114975;-62
2024/04/15 06:23:37;;;;;;;4.20;2.50;;;;;;;9.85;70.00;99902.84;125221;1305;114835;-62
2024/04/15 06:27:19;;;;;;;;;;;;;;;;;;;;;
2024/04/15 06:35:33;;;;;;;;;;;;;;;;;;;;;
2024/04/15 06:39:27;;;;;;;5.40;2.30;;;;;;;9.57;69.66;99903.60;127850;1287;130027;-65
2024/04/15 06:42:54;;;;;;;7.30;2.20;;;;;;;9.41;70.11;99878.21;126653;1295;115145;-65
2024/04/15 06:50:51;;;;;;;6.00;2.10;;;;;;;9.21;70.88;99902.36;121831;1304;115221;-65
2024/04/15 06:54:42;;;;;;;;;;;;;;;;;;;;;
2024/04/15 07:02:20;;;;;;;;;;;;;;;;;;;;;
2024/04/15 07:05:53;;;;;;;;;;;;;;;;;;;;;
2024/04/15 07:09:47;;;;;;;;;;;;;;;;;;;;;
2024/04/15 07:14:16;;;;;;;4.40;1.70;;;;;;;8.79;71.13;99909.95;127714;1284;115192;-64
2024/04/15 07:17:43;;;;;;;2.80;1.00;;;;;;;8.68;71.55;99911.94;122977;1288;115037;-65
2024/04/15 07:21:28;;;;;;;;;;;;;;;;;;;;;
2024/04/15 07:25:23;;;;;;;3.00;1.00;;;;;;;8.54;71.69;99892.13;126572;1303;115352;-64
2024/04/15 07:29:17;;;;;;;5.60;1.60;;;;;;;8.51;72.19;99878.71;125847;1304;129676;-65
2024/04/15 07:33:03;;;;;;;1.60;0.60;;;;;;;8.61;72.59;99873.42;126255;1298;115058;-66
2024/04/15 07:36:55;;;;;;;4.20;1.20;;;;;;;8.68;72.34;99882.21;125666;1301;115567;-65
2024/04/15 07:40:34;;;;;;;;;;;;;;;;;;;;;
2024/04/15 07:44:24;;;;;;;3.40;1.20;;;;;;;8.90;72.37;99887.20;125190;1308;114894;-66
2024/04/15 07:52:55;;;;;;;6.10;1.70;;;;;;;8.97;72.23;99872.23;125983;1308;638482;-65
2024/04/15 07:56:50;;;;;;;3.60;2.00;;;;;;;9.02;72.57;99875.56;127639;1288;128702;-65
2024/04/15 08:00:43;;;;;;;;;;;;;;;;;;;;;
2024/04/15 08:04:46;;;;;;;3.10;1.70;;;;;;;9.23;72.52;99862.18;122046;1312;5423850;-67
2024/04/15 08:13:12;;;;;;;5.00;1.30;;;;;;;9.48;72.52;99863.42;125987;1296;638114;-62
2024/04/15 08:16:56;;;;;;;;;;;;;;;9.53;72.43;99874.19;128322;1281;127779;-66
2024/04/15 08:20:58;;;;;;;;;;;;;;;;;;;;;
2024/04/15 08:24:52;;;;;;;7.40;2.30;;;;;;;9.52;71.50;99854.63;123885;1302;5399070;-66
2024/04/15 08:28:37;;;;;;;5.00;2.10;;;;;;;9.55;71.90;99849.13;125551;1305;114978;-66
2024/04/15 08:32:39;;;;;;;5.00;1.40;;;;;;;9.62;71.44;99852.02;125310;1319;114938;-66
2024/04/15 08:35:48;;;;;;;3.40;1.30;;;;;;;9.62;71.28;99862.48;124684;1314;127599;-64
2024/04/15 08:44:14;;;;;;;;;;;;;;;;;;;;;
2024/04/15 08:48:00;;;;;;;;;;;;;;;;;;;;;
2024/04/15 08:52:04;;;;;;;4.40;1.00;;;;;;;9.76;71.07;99853.76;126904;1307;114979;-66
2024/04/15 08:55:45;;;;;;;4.40;1.00;;;;;;;9.88;71.32;99852.94;121939;1313;5447231;-65
2024/04/15 08:59:46;;;;;;;3.10;1.10;;;;;;;10.02;71.03;99853.44;124839;1310;114938;-66
2024/04/15 09:07:55;;;;;;;3.40;1.50;;;;;;;10.30;70.97;99841.23;125785;1303;635481;-64
2024/04/15 09:11:57;;;;;;;4.20;1.10;;;;;;;10.41;70.46;99846.14;128090;1283;128023;-64
2024/04/15 09:16:00;;;;;;;3.90;1.30;;;;;;;10.52;70.41;99849.29;127843;1283;115005;-65
2024/04/15 09:20:03;;;;;;;8.30;3.10;;;;;;;10.64;70.37;99843.45;122445;1296;5473386;-63
2024/04/15 09:23:58;;;;;;;;;;;;;;;;;;;;;
2024/04/15 09:32:00;;;;;;;3.50;1.70;;;;;;;10.95;69.30;99830.01;126277;1303;635433;-64
2024/04/15 09:35:37;;;;;;;;;;;;;;;;;;;;;
2024/04/15 09:39:28;;;;;;;;;;;;;;;;;;;;;
2024/04/15 09:42:40;;;;;;;6.70;1.20;;;;;;;11.43;70.41;99823.07;128003;1280;114935;-66
2024/04/15 09:46:34;;;;;;;4.20;1.80;;;;;;;11.70;70.27;99817.52;123369;1286;5414503;-64
2024/04/15 09:50:36;;;;;;;4.10;1.50;;;;;;;12.02;69.16;99802.98;125908;1301;115081;-64
2024/04/15 09:54:39;;;;;;;2.40;1.10;;;;;;;12.34;68.68;99791.84;124859;1311;129887;-64
2024/04/15 09:58:22;;;;;;;;;;;;;;;;;;;;;
2024/04/15 10:02:22;;;;;;;;;;;;;;;;;;;;;
2024/04/15 10:06:39;;;;;;;;;;;;;;;;;;;;;
2024/04/15 10:10:42;;;;;;;2.60;1.60;;;;;;;12.95;65.77;99787.11;128699;1295;128696;-63
2024/04/15 10:14:26;;;;;;;3.90;2.20;;;;;;;13.04;65.92;99786.86;127749;1295;114756;-64
2024/04/15 10:18:44;;;;;;;;;;;;;;;;;;;;;
2024/04/15 10:22:29;;;;;;;2.80;1.30;;;;;;;13.24;64.12;99757.86;126035;1301;114926;-62
2024/04/15 10:26:22;;;;;;;5.80;1.50;;;;;;;13.19;64.36;99753.20;125389;1304;128741;-70
2024/04/15 10:30:20;;;;;;;5.20;1.10;;;;;;;13.12;63.26;99749.60;125626;1304;115075;-70
2024/04/15 10:34:29;;;;;;;;;;;;;;;;;;;;;
2024/04/15 10:42:44;;;;;;;4.60;1.90;;;;;;;13.12;63.93;99725.91;126944;1288;635408;-68
2024/04/15 10:46:45;;;;;;;3.40;1.10;;;;;;;13.26;63.21;99703.25;127788;1286;128999;-71
2024/04/15 10:50:15;;;;;;;;;;;;;;;;;;;;;
2024/04/15 10:53:56;;;;;;;;;;;;;;;;;;;;;
2024/04/15 10:57:59;;;;;;;3.90;1.60;;;;;;;13.89;62.76;99688.17;124714;1272;114907;-67
2024/04/15 11:01:22;;;;;;;5.10;1.80;;;;;;;14.14;62.07;99681.68;127175;1289;114791;-66
2024/04/15 11:05:23;;;;;;;4.20;1.30;;;;;;;14.28;61.83;99675.21;127043;1286;114942;-67
2024/04/15 11:09:17;;;;;;;2.80;1.10;;;;;;;14.46;60.70;99662.39;125901;1301;129742;-67
2024/04/15 11:13:00;;;;;;;5.60;0.90;;;;;;;14.54;60.16;99669.33;125562;1307;114840;-67
2024/04/15 11:21:09;;;;;;;;;;;;;;;;;;;;;
2024/04/15 11:25:13;;;;;;;;;;;;;;;;;;;;;
2024/04/15 11:29:07;;;;;;;;;;;;;;;;;;;;;
2024/04/15 11:32:58;;;;;;;6.50;1.70;;;;;;;14.51;58.76;99654.89;131897;1277;5402519;-65
2024/04/15 11:36:52;;;;;;;;;;;;;;;;;;;;;
2024/04/15 11:40:34;;;;;;;4.60;1.40;;;;;;;14.43;58.63;99629.70;128369;1281;129490;-65
2024/04/15 11:44:28;;;;;;;6.70;1.90;;;;;;;14.53;59.00;99615.48;127587;1287;114958;-64
2024/04/15 11:48:32;;;;;;;4.60;2.00;;;;;;;14.69;58.69;99631.77;126808;1292;115039;-64
2024/04/15 11:52:11;;;;;;;;;;;;;;;;;;;;;
2024/04/15 12:00:35;;;;;;;;;;;;;;;;;;;;;
2024/04/15 12:04:27;;;;;;;;;;;;;;;;;;;;;
2024/04/15 12:08:31;;;;;;;9.10;2.10;;;;;;;15.33;57.52;99582.86;128943;1288;114817;-64
2024/04/15 12:12:20;;;;;;;5.50;1.70;;;;;;;15.39;56.86;99576.09;124308;1277;5485266;-65
2024/04/15 12:16:12;;;;;;;;;;;;;;;;;;;;;
2024/04/15 12:20:15;;;;;;;6.30;2.60;;;;;;;15.44;56.50;99549.89;127234;1290;114847;-64
2024/04/15 12:28:19;;;;;;;;;;;;;;;;;;;;;
2024/04/15 12:32:07;;;;;;;6.40;3.20;;;;;;;15.52;56.48;99548.02;127872;1295;129819;-64
2024/04/15 12:35:48;;;;;;;;;;;;;;;;;;;;;
2024/04/15 12:39:43;;;;;;;9.20;3.40;;;;;;;15.67;55.75;99524.81;128075;1284;115675;-65
2024/04/15 12:42:52;;;;;;;8.40;3.50;;;;;;;15.73;55.75;99513.02;123461;1289;114990;-64
2024/04/15 12:46:29;;;;;;;5.30;2.70;;;;;;;15.78;55.34;99509.30;127386;1287;114933;-65
2024/04/15 12:50:33;;;;;;;7.50;3.80;;;;;;;15.85;55.58;99511.42;127008;1287;115031;-64
2024/04/15 12:54:17;;;;;;;;;;;;;;;;;;;;;
2024/04/15 12:58:19;;;;;;;9.50;3.80;;;;;;;16.01;54.95;99504.77;125659;1299;114930;-65
2024/04/15 13:10:24;;;;;;;7.40;3.70;;;;;;;16.17;54.54;99493.98;125119;1321;114997;-64
2024/04/15 13:14:18;;;;;;;4.60;2.40;;;;;;;16.18;54.03;99487.63;125485;1305;128561;-64
2024/04/15 13:18:05;;;;;;;;;;;;;;;;;;;;;
2024/04/15 13:26:16;;;;;;;6.10;2.10;;;;;;;16.18;54.03;99468.11;126232;1307;636082;-63
2024/04/15 13:30:19;;;;;;;6.10;3.10;;;;;;;16.15;53.54;99451.70;128336;1282;128911;-64
2024/04/15 13:34:21;;;;;;;4.80;2.40;;;;;;;16.22;53.74;99450.86;127227;1297;114943;-65
2024/04/15 13:38:25;;;;;;;5.80;2.80;;;;;;;16.28;53.78;99437.04;121664;1307;5504171;-65
2024/04/15 13:42:03;;;;;;;;;;;;;;;;;;;;;
2024/04/15 13:45:57;;;;;;;;;;;;;;;;;;;;;
2024/04/15 13:54:19;;;;;;;6.60;2.90;;;;;;;16.34;53.47;99417.97;126357;1292;635392;-65
2024/04/15 13:58:20;;;;;;;6.30;2.60;;;;;;;16.24;53.63;99406.54;128775;1278;128169;-64
2024/04/15 14:02:06;;;;;;;6.60;3.00;;;;;;;16.23;53.52;99399.57;128195;1282;114769;-64
2024/04/15 14:05:30;;;;;;;5.20;2.10;;;;;;;16.21;53.56;99389.19;127350;1290;114905;-64
2024/04/15 14:08:44;;;;;;;4.90;3.00;;;;;;;16.19;53.42;99388.27;127425;1287;115488;-66
2024/04/15 14:11:55;;;;;;;6.60;2.80;;;;;;;16.16;53.36;99376.46;127260;1294;114933;-65
2024/04/15 14:15:38;;;;;;;7.10;2.80;;;;;;;16.15;53.64;99347.04;127676;1283;128702;-65
2024/04/15 14:19:20;;;;;;;6.10;2.90;;;;;;;16.20;53.89;99346.54;127679;1286;114837;-65
2024/04/15 14:23:40;;;;;;;6.60;2.70;;;;;;;16.18;53.32;99327.66;126568;1294;114947;-65
2024/04/15 14:27:32;;;;;;;;;;;;;;;;;;;;;
2024/04/15 14:31:17;;;;;;;;;;;;;;;;;;;;;
2024/04/15 14:34:57;;;;;;;;;;;;;;;16.05;53.58;99297.78;124499;1329;130853;-65
2024/04/15 14:38:52;;;;;;;5.50;3.30;;;;;;;15.91;53.54;99294.12;125170;1310;114878;-64
2024/04/15 14:42:42;;;;;;;3.60;2.50;;;;;;;15.88;53.96;99277.81;124921;1320;114883;-65
2024/04/15 14:46:19;;;;;;;;;;;;;;;;;;;;;
2024/04/15 14:49:53;;;;;;;;;;;;;;;;;;;;;
2024/04/15 14:53:31;;;;;;;;;;;;;;;;;;;;;
2024/04/15 14:57:06;;;;;;;;;;;;;;;;;;;;;
2024/04/15 15:00:54;;;;;;;;;;;;;;;;;;;;;
2024/04/15 15:04:57;;;;;;;9.20;4.00;;;;;;;14.45;54.94;99264.49;125376;1298;114847;-64
2024/04/15 15:08:34;;;;;;;11.80;5.90;;;;;;;14.40;55.55;99259.91;125159;1307;115026;-65
2024/04/15 15:12:28;;;;;;;6.20;4.90;;;;;;;14.37;55.91;99253.89;126099;1293;128811;-65
2024/04/15 15:16:22;;;;;;;;;;;;;;;;;;;;;
2024/04/15 15:20:05;;;;;;;5.50;4.00;;;;;;;14.06;56.27;99231.02;125779;1301;114882;-65
2024/04/15 15:23:43;;;;;;;7.90;4.50;;;;;;;13.92;56.76;99219.95;125888;1305;115000;-65
2024/04/15 15:27:34;;;;;;;8.40;4.30;;;;;;;13.80;57.32;99220.79;125737;1305;114994;-65
2024/04/15 15:31:20;;;;;;;;;;;;;;;;;;;;;
2024/04/15 15:35:07;;;;;;;;;;;;;;;;;;;;;
2024/04/15 15:38:42;;;;;;;7.00;4.80;;;;;;;13.40;58.61;99196.98;126085;1297;635862;-66
2024/04/15 15:42:46;;;;;;;7.30;4.80;;;;;;;13.32;58.78;99193.99;128931;1272;127913;-65
2024/04/15 15:46:32;;;;;;;7.60;4.20;;;;;;;13.30;59.42;99174.12;127954;1280;114944;-64
2024/04/15 15:50:18;;;;;;;6.60;4.00;;;;;;;13.20;59.40;99163.98;127795;1286;114934;-64
2024/04/15 15:54:21;;;;;;;5.70;3.80;;;;;;;13.14;59.65;99168.14;123949;1283;114856;-64
2024/04/15 15:58:23;;;;;;;5.90;3.90;;;;;;;13.01;60.09;99166.33;126903;1306;114946;-64
2024/04/15 16:02:04;;;;;;;5.30;2.70;;;;;;;12.89;60.23;99164.37;126077;1308;115008;-64
2024/04/15 16:05:48;;;;;;;6.00;4.60;;;;;;;12.78;60.55;99157.67;125684;1301;129859;-64
2024/04/15 16:09:50;;;;;;;6.30;4.10;;;;;;;12.68;61.11;99145.90;125938;1303;115043;-64
2024/04/15 16:13:36;;;;;;;;;;;;;;;;;;;;;
2024/04/15 16:17:30;;;;;;;;;;;;;;;;;;;;;
2024/04/15 16:21:23;;;;;;;6.70;4.70;;;;;;;12.41;61.65;99118.92;124351;1333;114931;-65
2024/04/15 16:25:16;;;;;;;5.40;4.40;;;;;;;12.31;62.26;99121.63;125362;1323;128561;-64
2024/04/15 16:28:45;;;;;;;8.80;4.80;;;;;;;12.22;62.64;99115.93;124928;1311;114890;-65
2024/04/15 16:32:39;;;;;;;;;;;;;;;;;;;;;
2024/04/15 16:36:25;;;;;;;;;;;;;;;;;;;;;
2024/04/15 16:39:56;;;;;;;8.80;4.80;;;;;;;12.01;63.51;99068.59;126023;1315;114792;-65
2024/04/15 16:43:36;;;;;;;;;;;;;;;;;;;;;
2024/04/15 16:47:22;;;;;;;5.70;3.40;;;;;;;11.84;64.33;99060.00;125838;1306;115235;-65
2024/04/15 16:50:40;;;;;;;8.70;5.20;;;;;;;11.73;64.91;99054.73;126077;1299;115268;-64
2024/04/15 16:54:10;;;;;;;5.70;3.20;;;;;;;11.68;64.94;99048.63;125999;1309;114917;-65
2024/04/15 16:57:14;;;;;;;7.00;3.90;;;;;;;11.62;65.70;99042.35;126697;1297;114875;-64
2024/04/15 17:00:33;;;;;;;;;;;;;;;;;;;;;
2024/04/15 17:04:23;;;;;;;8.30;4.40;;;;;;;11.46;66.12;99030.27;126869;1284;114858;-64
2024/04/15 17:08:04;;;;;;;7.00;5.40;;;;;;;11.39;66.50;99018.47;128213;1281;114928;-64
2024/04/15 17:12:12;;;;;;;7.20;5.70;;;;;;;11.31;66.89;99021.39;127769;1274;114920;-66
2024/04/15 17:15:36;;;;;;;9.40;5.50;;;;;;;11.22;67.19;99016.98;127432;1286;114937;-64
2024/04/15 17:18:44;;;;;;;10.80;6.80;;;;;;;11.15;67.67;99006.27;127117;1305;128993;-64
2024/04/15 17:22:00;;;;;;;9.70;6.60;;;;;;;11.06;68.08;99001.20;127523;1287;114993;-65
2024/04/15 17:25:29;;;;;;;;;;;;;;;;;;;;;
2024/04/15 17:28:31;;;;;;;8.70;5.80;;;;;;;10.90;68.83;98995.91;127390;1292;114862;-64
2024/04/15 17:31:55;;;;;;;9.60;6.80;;;;;;;10.83;69.15;98989.05;128156;1280;115088;-64
2024/04/15 17:35:19;;;;;;;10.60;6.90;;;;;;;10.73;69.34;98975.48;127498;1277;128855;-65
2024/04/15 17:38:38;;;;;;;11.30;6.20;;;;;;;10.64;69.56;98971.48;128438;1275;114902;-65
2024/04/15 17:42:24;;;;;;;9.90;7.60;;;;;;;10.55;70.06;98962.48;128441;1277;114862;-64
2024/04/15 17:45:41;;;;;;;8.10;5.20;;;;;;;10.45;70.54;98952.85;128590;1293;114850;-65
2024/04/15 17:49:04;;;;;;;;;;;;;;;;;;;;;
2024/04/15 17:52:34;;;;;;;8.90;7.00;;;;;;;10.28;71.12;98921.50;128947;1285;128804;-64
2024/04/15 17:56:05;;;;;;;8.80;5.40;;;;;;;10.20;71.33;98920.48;129674;1285;114759;-64
2024/04/15 17:59:29;;;;;;;10.50;7.50;;;;;;;10.10;71.85;98914.37;129624;1263;114735;-65
2024/04/15 18:02:57;;;;;;;12.80;7.70;;;;;;;10.02;72.11;98910.09;129542;1268;114928;-65
2024/04/15 18:06:11;;;;;;;12.90;6.70;;;;;;;9.94;72.41;98911.56;129440;1264;114883;-63
2024/04/15 18:09:16;;;;;;;16.40;9.00;;;;;;;9.87;72.68;98903.29;129625;1267;127624;-64
2024/04/15 18:12:54;;;;;;;;;;;;;;;;;;;;;
2024/04/15 18:16:08;;;;;;;13.60;8.10;;;;;;;9.77;74.09;98885.66;129009;1271;115014;-64
2024/04/15 18:19:33;;;;;;;14.50;7.90;;;;;;;9.72;73.76;98873.48;128982;1274;114768;-65
2024/04/15 18:22:44;;;;;;;;;;;;;;;9.69;74.19;98866.77;128254;1278;114812;-64
2024/04/15 18:26:13;;;;;;;;;;;;;;;;;;;;;
2024/04/15 18:29:26;;;;;;;12.40;7.10;;;;;;;9.59;74.99;98840.13;127744;1277;114834;-64
2024/04/15 18:32:40;;;;;;;13.40;9.20;;;;;;;9.56;75.02;98834.79;128359;1280;116523;-65
2024/04/15 18:36:31;;;;;;;13.00;8.00;;;;;;;9.55;75.39;98827.57;128273;1279;114957;-64
2024/04/15 18:39:58;;;;;;;10.70;6.40;;;;;;;9.52;75.63;98820.62;128251;1280;115119;-64
2024/04/15 18:43:49;;;;;;;9.50;6.40;;;;;;;9.50;76.43;98812.95;128717;1279;129152;-64
2024/04/15 18:47:48;;;;;;;;;;;;;;;;;;;;;
2024/04/15 18:51:15;;;;;;;13.60;6.20;;;;;;;9.45;77.39;98799.42;127254;1286;114893;-63
2024/04/15 18:54:48;;;;;;;11.70;7.00;;;;;;;9.44;77.08;98795.71;127641;1300;114968;-64
2024/04/15 18:58:11;;;;;;;13.70;7.20;;;;;;;9.44;77.82;98798.73;128184;1276;115425;-64
2024/04/15 19:01:30;;;;;;;8.20;4.50;;;;;;;9.43;78.23;98798.66;128081;1281;127961;-64
2024/04/15 19:04:35;;;;;;;13.00;7.40;;;;;;;9.41;78.50;98785.91;128720;1271;114909;-64
2024/04/15 19:07:43;;;;;;;15.10;9.70;;;;;;;9.41;78.08;98774.55;128479;1277;114909;-65
2024/04/15 19:10:45;;;;;;;10.50;6.50;;;;;;;9.40;78.41;98767.31;128735;1272;114874;-63
2024/04/15 19:13:53;;;;;;;12.00;6.70;;;;;;;9.39;78.63;98761.33;128286;1277;114904;-64
2024/04/15 19:17:10;;;;;;;17.60;9.00;;;;;;;9.38;78.72;98759.80;129051;1284;127857;-64
2024/04/15 19:20:46;;;;;;;12.90;9.10;;;;;;;9.35;78.78;98759.09;129662;1279;114741;-64
2024/04/15 19:24:20;;;;;;;13.00;8.70;;;;;;;9.34;79.11;98765.41;129764;1270;114758;-64
2024/04/15 19:28:07;;;;;;;;;;;;;;;;;;;;;
2024/04/15 19:31:20;;;;;;;15.60;7.90;;;;;;;9.31;79.69;98760.64;130212;1263;114789;-65
2024/04/15 19:34:35;;;;;;;10.20;6.90;;;;;;;9.28;79.91;98746.38;130335;1260;128930;-66
2024/04/15 19:37:51;;;;;;;16.90;9.10;;;;;;;9.26;79.81;98738.54;130460;1260;115493;-65
2024/04/15 19:40:59;;;;;;;6.70;4.10;;;;;;;9.23;79.85;98739.41;130490;1253;114710;-66
2024/04/15 19:44:25;;;;;;;6.40;4.20;;;;;;;9.21;80.43;98736.22;130588;1274;114778;-66
2024/04/15 19:47:27;;;;;;;13.80;9.10;;;;;;;9.16;80.57;98733.39;130484;1253;114762;-67
2024/04/15 19:50:55;;;;;;;14.30;9.20;;;;;;;9.11;80.97;98720.66;130567;1261;114847;-64
2024/04/15 19:54:22;;;;;;;;;;;;;;;;;;;;;
2024/04/15 19:57:28;;;;;;;18.20;10.70;;;;;;;9.04;81.23;98697.31;130598;1274;114797;-65
2024/04/15 20:00:45;;;;;;;;;;;;;;;;;;;;;
2024/04/15 20:03:47;;;;;;;16.00;9.30;;;;;;;8.98;81.28;98677.57;130474;1256;114723;-64
2024/04/15 20:07:18;;;;;;;15.50;11.10;;;;;;;8.96;82.27;98662.35;130411;1275;114717;-64
2024/04/15 20:10:30;;;;;;;15.70;11.20;;;;;;;8.96;82.25;98659.41;129730;1264;115341;-63
2024/04/15 20:14:03;;;;;;;;;;;;;;;8.96;82.05;98642.80;129547;1259;114931;-64
2024/04/15 20:18:09;;;;;;;15.40;10.20;;;;;;;8.98;82.90;98627.91;129296;1282;114880;-65
2024/04/15 20:20:57;;;;;;;18.80;10.20;;;;;;;9.00;83.13;98629.17;129702;1264;114797;-65
2024/04/15 20:24:10;;;;;;;15.00;9.40;;;;;;;9.02;83.15;98616.36;129782;1262;128669;-65
2024/04/15 20:27:15;;;;;;;16.40;11.30;;;;;;;9.05;83.22;98615.81;129902;1274;114925;-65
2024/04/15 20:30:32;;;;;;;18.00;10.90;;;;;;;9.08;83.54;98606.03;129880;1260;115218;-66
2024/04/15 20:33:56;;;;;;;10.10;6.30;;;;;;;9.10;83.64;98596.39;129877;1282;114782;-67
2024/04/15 20:37:25;;;;;;;16.70;9.50;;;;;;;9.12;83.66;98590.21;129498;1262;115105;-65
2024/04/15 20:40:41;;;;;;;15.20;9.30;;;;;;;9.15;83.81;98586.14;129576;1262;128874;-66
2024/04/15 20:44:06;;;;;;;15.10;10.20;;;;;;;9.17;83.69;98580.30;129351;1262;114942;-66
2024/04/15 20:47:20;;;;;;;;;;;;;;;9.20;84.02;98574.70;129136;1266;114896;-67
2024/04/15 20:51:11;;;;;;;14.60;10.30;;;;;;;9.22;84.17;98570.96;129548;1268;114922;-66
2024/04/15 20:54:41;;;;;;;;;;;;;;;;;;;;;
2024/04/15 20:58:38;;;;;;;13.10;9.50;;;;;;;9.30;84.63;98544.23;129140;1268;128898;-65
2024/04/15 21:02:42;;;;;;;15.90;11.00;;;;;;;9.35;85.01;98531.98;128316;1275;114855;-65
2024/04/15 21:06:21;;;;;;;;;;;;;;;;;;;;;
2024/04/15 21:10:13;;;;;;;11.60;8.90;;;;;;;9.41;84.97;98524.89;126429;1305;114867;-65
2024/04/15 21:14:08;;;;;;;17.90;10.90;;;;;;;9.46;85.41;98510.48;126131;1299;116680;-65
2024/04/15 21:18:01;;;;;;;;;;;;;;;;;;;;;